createdAt,value
2019-04-26T00:02:16.719Z,99.90
2019-04-26T00:05:20.214Z,99.90
2019-04-26T00:08:24.027Z,99.90
2019-04-26T00:11:50.064Z,99.90
2019-04-26T00:15:27.219Z,99.90
2019-04-26T00:18:30.645Z,99.90
2019-04-26T00:21:34.055Z,99.90
2019-04-26T00:24:37.635Z,99.90
2019-04-26T00:27:41.055Z,99.90
2019-04-26T00:30:44.520Z,99.90
2019-04-26T00:33:47.827Z,99.90
2019-04-26T00:36:51.260Z,99.90
2019-04-26T00:39:54.624Z,99.90
2019-04-26T00:42:58.863Z,99.90
2019-04-26T00:46:03.055Z,99.90
2019-04-26T00:49:08.707Z,99.90
2019-04-26T00:52:14.624Z,99.90
2019-04-26T00:55:20.084Z,99.90
2019-04-26T00:58:24.488Z,99.90
2019-04-26T01:01:29.740Z,99.90
2019-04-26T01:04:33.290Z,99.90
2019-04-26T01:07:36.931Z,99.90
2019-04-26T01:10:40.394Z,99.90
2019-04-26T01:13:43.804Z,99.90
2019-04-26T01:16:47.295Z,99.90
2019-04-26T01:19:53.776Z,99.90
2019-04-26T01:23:00.387Z,99.90
2019-04-26T01:26:16.916Z,99.90
2019-04-26T01:29:21.988Z,99.90
2019-04-26T01:32:27.014Z,99.90
2019-04-26T01:35:30.736Z,99.90
2019-04-26T01:38:34.558Z,99.90
2019-04-26T01:41:46.105Z,99.90
2019-04-26T01:45:27.948Z,99.90
2019-04-26T01:48:44.301Z,99.90
2019-04-26T01:51:54.260Z,99.90
2019-04-26T01:54:58.515Z,99.90
2019-04-26T01:58:05.405Z,99.90
2019-04-26T02:01:16.947Z,99.90
2019-04-26T02:04:22.453Z,99.90
2019-04-26T02:07:38.676Z,99.90
2019-04-26T02:10:41.939Z,99.90
2019-04-26T02:13:45.472Z,99.90
2019-04-26T02:16:48.835Z,99.90
2019-04-26T02:19:52.139Z,99.90
2019-04-26T02:23:10.872Z,99.90
2019-04-26T02:26:37.540Z,99.90
2019-04-26T02:29:41.831Z,99.90
2019-04-26T02:32:45.364Z,99.90
2019-04-26T02:35:48.771Z,99.90
2019-04-26T02:38:54.016Z,99.90
2019-04-26T02:42:01.556Z,99.90
2019-04-26T02:45:30.959Z,99.90
2019-04-26T02:48:52.659Z,99.90
2019-04-26T02:52:32.990Z,99.90
2019-04-26T02:56:04.453Z,99.90
2019-04-26T02:59:40.100Z,99.90
2019-04-26T03:02:44.925Z,99.90
2019-04-26T03:05:49.296Z,99.90
2019-04-26T03:08:54.311Z,99.90
2019-04-26T03:12:02.281Z,99.90
2019-04-26T03:15:28.342Z,99.90
2019-04-26T03:19:00.159Z,99.90
2019-04-26T03:22:33.337Z,99.90
2019-04-26T03:25:47.723Z,99.90
2019-04-26T03:29:29.723Z,99.90
2019-04-26T03:33:10.602Z,99.90
2019-04-26T03:36:42.836Z,99.90
2019-04-26T03:40:07.893Z,99.90
2019-04-26T03:43:24.766Z,99.90
2019-04-26T03:46:52.259Z,99.90
2019-04-26T03:50:12.908Z,99.90
2019-04-26T03:53:54.740Z,99.90
2019-04-26T03:57:16.968Z,99.90
2019-04-26T04:00:42.596Z,99.90
2019-04-26T04:03:58.993Z,99.90
2019-04-26T04:07:05.851Z,99.90
2019-04-26T04:10:14.621Z,99.90
2019-04-26T04:13:51.443Z,99.90
2019-04-26T04:17:30.181Z,99.90
2019-04-26T04:21:04.932Z,99.90
2019-04-26T04:24:11.892Z,99.90
2019-04-26T04:27:27.726Z,99.90
2019-04-26T04:30:56.867Z,99.90
2019-04-26T04:34:20.253Z,99.90
2019-04-26T04:37:27.675Z,99.90
2019-04-26T04:41:08.678Z,99.90
2019-04-26T04:45:00.057Z,99.90
2019-04-26T04:48:34.656Z,99.90
2019-04-26T04:52:27.423Z,99.90
2019-04-26T04:55:45.220Z,99.90
2019-04-26T04:58:53.441Z,99.90
2019-04-26T05:02:56.225Z,99.90
2019-04-26T05:06:26.401Z,99.90
2019-04-26T05:09:38.331Z,99.90
2019-04-26T05:13:23.135Z,99.90
2019-04-26T05:16:57.763Z,99.90
2019-04-26T05:20:25.062Z,99.90
2019-04-26T05:24:07.541Z,99.90
2019-04-26T05:27:36.847Z,99.90
2019-04-26T05:31:24.964Z,99.90
2019-04-26T05:34:39.022Z,99.90
2019-04-26T05:37:59.734Z,99.90
2019-04-26T05:41:55.697Z,99.90
2019-04-26T05:45:46.783Z,99.90
2019-04-26T05:50:00.013Z,99.90
2019-04-26T05:54:12.845Z,99.90
2019-04-26T05:57:43.813Z,99.90
2019-04-26T06:01:20.769Z,99.90
2019-04-26T06:05:19.046Z,99.90
2019-04-26T06:09:04.843Z,99.90
2019-04-26T06:12:44.624Z,99.90
2019-04-26T06:16:02.540Z,99.90
2019-04-26T06:19:26.019Z,99.90
2019-04-26T06:22:59.710Z,99.90
2019-04-26T06:26:40.519Z,99.90
2019-04-26T06:29:56.727Z,99.90
2019-04-26T06:33:24.606Z,99.90
2019-04-26T06:36:39.193Z,99.90
2019-04-26T06:40:05.804Z,99.90
2019-04-26T06:43:36.007Z,99.90
2019-04-26T06:47:16.412Z,99.90
2019-04-26T06:50:34.296Z,99.90
2019-04-26T06:54:10.239Z,99.90
2019-04-26T06:58:25.579Z,99.90
2019-04-26T07:01:59.156Z,99.90
2019-04-26T07:05:25.233Z,99.90
2019-04-26T07:08:57.574Z,99.90
2019-04-26T07:12:33.747Z,99.90
2019-04-26T07:16:19.686Z,99.90
2019-04-26T07:20:01.409Z,99.90
2019-04-26T07:23:51.399Z,99.90
2019-04-26T07:27:16.509Z,99.90
2019-04-26T07:30:47.637Z,99.90
2019-04-26T07:35:00.966Z,99.90
2019-04-26T07:38:51.587Z,99.90
2019-04-26T07:42:35.692Z,99.90
2019-04-26T07:45:54.826Z,99.90
2019-04-26T07:49:47.500Z,99.90
2019-04-26T07:53:49.657Z,99.90
2019-04-26T07:57:22.995Z,99.90
2019-04-26T08:00:44.573Z,99.90
2019-04-26T08:03:55.461Z,99.90
2019-04-26T08:07:08.228Z,99.90
2019-04-26T08:10:16.495Z,99.90
2019-04-26T08:13:22.012Z,99.90
2019-04-26T08:16:54.322Z,99.90
2019-04-26T08:20:51.044Z,99.90
2019-04-26T08:24:06.123Z,99.90
2019-04-26T08:27:23.272Z,99.90
2019-04-26T08:30:25.092Z,99.50
2019-04-26T08:33:35.250Z,98.20
2019-04-26T08:36:47.171Z,96.90
2019-04-26T08:39:52.131Z,96.20
2019-04-26T08:43:14.207Z,94.70
2019-04-26T08:46:49.544Z,93.90
2019-04-26T08:49:56.919Z,92.60
2019-04-26T08:53:02.723Z,91.30
2019-04-26T08:56:08.249Z,90.40
2019-04-26T08:59:19.820Z,87.90
2019-04-26T09:02:45.960Z,85.80
2019-04-26T09:06:13.022Z,84.50
2019-04-26T09:09:23.105Z,84.60
2019-04-26T09:12:29.183Z,83.20
2019-04-26T09:16:08.448Z,81.90
2019-04-26T09:19:12.072Z,78.30
2019-04-26T09:22:26.536Z,75.80
2019-04-26T09:25:38.985Z,73.70
2019-04-26T09:29:02.112Z,74.70
2019-04-26T09:32:29.255Z,74.60
2019-04-26T09:35:33.068Z,72.70
2019-04-26T09:38:36.661Z,70.40
2019-04-26T09:41:40.247Z,70.40
2019-04-26T09:44:56.945Z,69.00
2019-04-26T09:48:11.598Z,68.30
2019-04-26T09:51:16.617Z,66.80
2019-04-26T09:54:20.083Z,66.50
2019-04-26T09:57:23.696Z,66.90
2019-04-26T10:00:28.683Z,66.10
2019-04-26T10:03:34.429Z,67.70
2019-04-26T10:06:38.052Z,66.40
2019-04-26T10:09:41.585Z,67.20
2019-04-26T10:12:55.513Z,66.90
2019-04-26T10:16:20.970Z,65.20
2019-04-26T10:19:52.615Z,64.30
2019-04-26T10:22:56.228Z,63.10
2019-04-26T10:25:59.792Z,61.90
2019-04-26T10:29:03.518Z,64.20
2019-04-26T10:32:07.212Z,64.20
2019-04-26T10:35:10.644Z,67.30
2019-04-26T10:38:14.148Z,68.50
2019-04-26T10:41:17.629Z,66.30
2019-04-26T10:44:22.447Z,64.40
2019-04-26T10:47:26.082Z,62.80
2019-04-26T10:50:33.109Z,62.50
2019-04-26T10:54:08.105Z,63.10
2019-04-26T10:57:28.124Z,64.10
2019-04-26T11:00:36.661Z,64.90
2019-04-26T11:03:40.220Z,63.50
2019-04-26T11:06:43.791Z,62.80
2019-04-26T11:09:47.212Z,63.40
2019-04-26T11:12:50.792Z,65.70
2019-04-26T11:15:54.164Z,63.80
2019-04-26T11:19:01.066Z,65.00
2019-04-26T11:22:03.074Z,65.40
2019-04-26T11:25:06.963Z,66.10
2019-04-26T11:28:10.399Z,67.80
2019-04-26T11:31:13.967Z,68.00
2019-04-26T11:34:19.263Z,67.10
2019-04-26T11:37:22.715Z,66.70
2019-04-26T11:40:26.136Z,64.10
2019-04-26T11:43:29.612Z,61.00
2019-04-26T11:46:44.242Z,60.00
2019-04-26T11:49:41.634Z,59.60
2019-04-26T11:52:43.695Z,58.10
2019-04-26T11:55:47.104Z,56.40
2019-04-26T11:58:52.545Z,58.50
2019-04-26T12:01:55.851Z,57.30
2019-04-26T12:05:07.755Z,56.30
2019-04-26T12:08:13.913Z,57.40
2019-04-26T12:11:19.020Z,58.70
2019-04-26T12:14:22.584Z,58.80
2019-04-26T12:17:27.133Z,57.60
2019-04-26T12:20:30.724Z,57.90
2019-04-26T12:23:34.219Z,57.40
2019-04-26T12:26:43.012Z,59.90
2019-04-26T12:29:44.211Z,60.60
2019-04-26T12:32:50.055Z,61.50
2019-04-26T12:35:57.016Z,63.40
2019-04-26T12:38:58.245Z,63.40
2019-04-26T12:42:03.191Z,66.80
2019-04-26T12:45:37.763Z,70.40
2019-04-26T12:48:40.767Z,72.70
2019-04-26T12:51:47.243Z,72.50
2019-04-26T12:54:49.595Z,73.00
2019-04-26T12:57:52.594Z,72.90
2019-04-26T13:00:57.165Z,74.00
2019-04-26T13:04:09.045Z,74.90
2019-04-26T13:07:23.421Z,74.60
2019-04-26T13:10:49.644Z,74.60
2019-04-26T13:14:08.643Z,74.30
2019-04-26T13:17:14.575Z,73.10
2019-04-26T13:20:17.575Z,73.70
2019-04-26T13:23:20.534Z,74.50
2019-04-26T13:26:23.563Z,74.20
2019-04-26T13:29:27.358Z,73.70
2019-04-26T13:32:31.280Z,73.40
2019-04-26T13:35:34.308Z,72.30
2019-04-26T13:38:39.427Z,73.60
2019-04-26T13:41:42.059Z,73.00
2019-04-26T13:44:55.516Z,73.20
2019-04-26T13:48:23.747Z,72.50
2019-04-26T13:51:27.947Z,74.40
2019-04-26T13:54:31.217Z,74.30
2019-04-26T13:57:34.326Z,73.90
2019-04-26T14:00:39.771Z,73.90
2019-04-26T14:03:42.148Z,73.50
2019-04-26T14:06:45.083Z,75.40
2019-04-26T14:09:48.053Z,75.30
2019-04-26T14:12:51.347Z,75.30
2019-04-26T14:15:54.316Z,75.40
2019-04-26T14:18:57.292Z,75.30
2019-04-26T14:22:03.228Z,76.40
2019-04-26T14:25:11.172Z,77.20
2019-04-26T14:28:13.425Z,77.20
2019-04-26T14:31:18.040Z,75.30
2019-04-26T14:34:21.156Z,75.40
2019-04-26T14:37:24.157Z,73.10
2019-04-26T14:40:27.070Z,71.50
2019-04-26T14:43:40.645Z,70.70
2019-04-26T14:46:34.743Z,69.40
2019-04-26T14:49:39.189Z,69.60
2019-04-26T14:52:42.459Z,67.40
2019-04-26T14:55:45.416Z,68.10
2019-04-26T14:58:48.468Z,70.00
2019-04-26T15:02:13.341Z,73.00
2019-04-26T15:05:43.115Z,72.50
2019-04-26T15:08:46.926Z,72.20
2019-04-26T15:11:54.143Z,72.70
2019-04-26T15:14:56.676Z,72.60
2019-04-26T15:17:59.418Z,72.20
2019-04-26T15:21:04.218Z,72.30
2019-04-26T15:24:07.313Z,74.00
2019-04-26T15:27:10.278Z,73.80
2019-04-26T15:30:13.435Z,76.00
2019-04-26T15:33:16.479Z,76.10
2019-04-26T15:36:19.826Z,76.90
2019-04-26T15:39:34.542Z,76.30
2019-04-26T15:43:00.823Z,76.20
2019-04-26T15:46:15.211Z,77.10
2019-04-26T15:49:37.219Z,76.90
2019-04-26T15:52:43.662Z,77.80
2019-04-26T15:55:47.260Z,77.10
2019-04-26T15:58:52.227Z,76.60
2019-04-26T16:01:56.400Z,77.00
2019-04-26T16:05:00.103Z,77.30
2019-04-26T16:08:04.580Z,78.10
2019-04-26T16:11:11.442Z,78.50
2019-04-26T16:14:13.570Z,79.40
2019-04-26T16:17:16.607Z,80.50
2019-04-26T16:20:20.023Z,82.00
2019-04-26T16:23:24.225Z,82.70
2019-04-26T16:26:27.740Z,82.20
2019-04-26T16:29:50.826Z,80.90
2019-04-26T16:33:10.830Z,80.50
2019-04-26T16:36:14.200Z,79.50
2019-04-26T16:39:17.794Z,78.60
2019-04-26T16:42:23.310Z,79.90
2019-04-26T16:45:27.587Z,79.60
2019-04-26T16:48:31.019Z,79.90
2019-04-26T16:51:34.479Z,79.70
2019-04-26T16:54:37.984Z,80.40
2019-04-26T16:57:43.905Z,81.60
2019-04-26T17:04:04.696Z,84.50
2019-04-26T17:07:08.000Z,85.50
2019-04-26T17:10:12.117Z,86.50
2019-04-26T17:13:15.748Z,87.30
2019-04-26T17:16:18.874Z,88.30
2019-04-26T17:19:22.769Z,88.40
2019-04-26T17:22:59.087Z,89.20
2019-04-26T17:30:03.915Z,91.20
2019-04-26T17:33:08.985Z,92.20
2019-04-26T17:36:15.688Z,92.40
2019-04-26T17:39:18.500Z,92.70
2019-04-26T17:42:25.268Z,93.50
2019-04-26T17:45:27.484Z,94.00
2019-04-26T17:48:33.585Z,94.90
2019-04-26T17:51:43.728Z,95.70
2019-04-26T17:54:46.657Z,96.50
2019-04-26T17:57:48.451Z,97.60
2019-04-26T18:00:51.531Z,99.90
2019-04-26T18:03:55.940Z,99.90
2019-04-26T18:07:03.882Z,99.90
2019-04-26T18:10:06.406Z,99.90
2019-04-26T18:13:16.398Z,99.90
2019-04-26T18:16:17.816Z,99.90
2019-04-26T18:19:42.767Z,99.90
2019-04-26T18:22:59.439Z,99.90
2019-04-26T18:26:03.310Z,99.90
2019-04-26T18:29:06.772Z,99.90
2019-04-26T18:32:10.131Z,99.90
2019-04-26T18:35:16.646Z,99.90
2019-04-26T18:38:18.573Z,99.90
2019-04-26T18:41:22.977Z,99.90
2019-04-26T18:44:36.229Z,99.90
2019-04-26T18:47:36.827Z,99.90
2019-04-26T18:50:40.364Z,99.90
2019-04-26T18:53:58.380Z,99.90
2019-04-26T18:57:03.230Z,99.90
2019-04-26T19:00:08.955Z,99.90
2019-04-26T19:03:15.980Z,99.90
2019-04-26T19:06:29.656Z,99.90
2019-04-26T19:09:26.360Z,99.90
2019-04-26T19:12:29.694Z,99.90
2019-04-26T19:15:45.918Z,99.90
2019-04-26T19:18:58.991Z,99.90
2019-04-26T19:22:03.456Z,99.90
2019-04-26T19:25:18.954Z,99.90
2019-04-26T19:28:13.587Z,99.90
2019-04-26T19:31:19.295Z,99.90
2019-04-26T19:34:26.038Z,99.90
2019-04-26T19:37:30.358Z,99.90
2019-04-26T19:40:32.760Z,99.90
2019-04-26T19:43:39.209Z,99.90
2019-04-26T19:46:53.654Z,99.90
2019-04-26T19:50:03.257Z,99.90
2019-04-26T19:53:17.684Z,99.90
2019-04-26T19:56:33.231Z,99.90
2019-04-26T19:59:36.643Z,99.90
2019-04-26T20:02:41.869Z,99.90
2019-04-26T20:05:45.532Z,99.90
2019-04-26T20:08:49.649Z,99.90
2019-04-26T20:11:57.996Z,99.90
2019-04-26T20:14:59.691Z,99.90
2019-04-26T20:18:03.990Z,99.90
2019-04-26T20:21:12.599Z,99.90
2019-04-26T20:24:12.815Z,99.90
2019-04-26T20:27:20.839Z,99.90
2019-04-26T20:30:38.851Z,99.90
2019-04-26T20:33:42.525Z,99.90
2019-04-26T20:36:47.797Z,99.90
2019-04-26T20:39:53.008Z,99.90
2019-04-26T20:43:01.662Z,99.90
2019-04-26T20:46:13.748Z,99.90
2019-04-26T20:49:09.145Z,99.90
2019-04-26T20:52:16.411Z,99.90
2019-04-26T20:55:17.887Z,99.90
2019-04-26T20:58:21.379Z,99.90
2019-04-26T21:01:24.720Z,99.90
2019-04-26T21:04:36.721Z,99.90
2019-04-26T21:12:14.809Z,99.90
2019-04-26T21:16:43.636Z,99.90
2019-04-26T21:20:17.370Z,99.90
2019-04-26T21:23:15.447Z,99.90
2019-04-26T21:26:42.445Z,99.90
2019-04-26T21:30:08.087Z,99.90
2019-04-26T21:33:35.891Z,99.90
2019-04-26T21:36:53.932Z,99.90
2019-04-26T21:40:22.729Z,99.90
2019-04-26T21:43:23.129Z,99.90
2019-04-26T21:46:28.883Z,99.90
2019-04-26T21:49:35.135Z,99.90
2019-04-26T21:52:38.067Z,99.90
2019-04-26T21:55:43.378Z,99.90
2019-04-26T21:58:46.815Z,99.90
2019-04-26T22:01:56.772Z,99.90
2019-04-26T22:04:56.756Z,99.90
2019-04-26T22:08:00.198Z,99.90
2019-04-26T22:11:03.763Z,99.90
2019-04-26T22:14:19.262Z,99.90
2019-04-26T22:22:06.894Z,99.90
2019-04-26T22:25:10.405Z,99.90
2019-04-26T22:28:13.532Z,99.90
2019-04-26T22:31:16.727Z,99.90
2019-04-26T22:34:19.987Z,99.90
2019-04-26T22:37:29.763Z,99.90
2019-04-26T22:40:28.789Z,99.90
2019-04-26T22:43:44.773Z,99.90
2019-04-26T22:47:09.885Z,99.90
2019-04-26T22:50:14.045Z,99.90
2019-04-26T22:53:21.602Z,99.90
2019-04-26T22:56:26.594Z,99.90
2019-04-26T22:59:31.377Z,99.90
2019-04-26T23:02:38.901Z,99.90
2019-04-26T23:05:43.277Z,99.90
2019-04-26T23:08:46.227Z,99.90
2019-04-26T23:11:55.646Z,99.90
2019-04-26T23:15:17.677Z,99.90
2019-04-26T23:18:46.402Z,99.90
2019-04-26T23:21:55.861Z,99.90
2019-04-26T23:24:58.384Z,99.90
2019-04-26T23:28:01.249Z,99.90
2019-04-26T23:31:09.147Z,99.90
2019-04-26T23:34:12.034Z,99.90
2019-04-26T23:37:14.881Z,99.90
2019-04-26T23:40:20.769Z,99.90
2019-04-26T23:43:25.555Z,99.90
2019-04-26T23:46:28.089Z,99.90
2019-04-26T23:49:33.459Z,99.90
2019-04-26T23:52:36.521Z,99.90
2019-04-26T23:55:43.359Z,99.90
2019-04-26T23:58:45.665Z,99.90
